Time;durP1;ratioP1;P1;durP2;ratioP2;P2;SDS_P1;SDS_P2;PMS_P1;PMS_P2;Temp;Humidity;BMP_temperature;BMP_pressure;BME280_temperature;BME280_humidity;BME280_pressure;Samples;Min_cycle;Max_cycle;Signal;HPM_P1;HPM_P2
2022/03/12 00:00:01;;;;;;;3.40;3.13;;;10.50;53.00;;;;;;5046859;28;20490;-71
2022/03/12 00:02:32;;;;;;;1.47;1.17;;;10.50;53.10;;;;;;5051337;28;20493;-71
2022/03/12 00:04:59;;;;;;;1.50;1.20;;;10.50;53.10;;;;;;5045009;28;20516;-71
2022/03/12 00:07:30;;;;;;;4.03;3.77;;;10.50;53.30;;;;;;5047242;28;20462;-71
2022/03/12 00:09:57;;;;;;;1.43;1.10;;;10.50;53.20;;;;;;5047786;28;20997;-70
2022/03/12 00:12:24;;;;;;;1.40;1.10;;;10.50;53.40;;;;;;5025089;28;20513;-70
2022/03/12 00:14:51;;;;;;;1.50;1.20;;;10.50;53.60;;;;;;5040928;28;20469;-72
2022/03/12 00:17:18;;;;;;;1.43;1.10;;;10.50;53.50;;;;;;5050575;28;20473;-71
2022/03/12 00:19:46;;;;;;;2.37;2.17;;;10.50;53.40;;;;;;5039019;28;20482;-71
2022/03/12 00:22:14;;;;;;;1.47;1.07;;;10.50;53.50;;;;;;5039978;28;20497;-71
2022/03/12 00:24:42;;;;;;;1.57;1.47;;;10.50;53.60;;;;;;5049181;28;20466;-70
2022/03/12 00:27:09;;;;;;;1.50;1.10;;;10.50;53.20;;;;;;5042536;28;20462;-71
2022/03/12 00:29:36;;;;;;;1.50;1.10;;;10.40;53.20;;;;;;5048410;28;20465;-71
2022/03/12 00:32:05;;;;;;;2.83;2.63;;;10.40;53.40;;;;;;5032945;28;20490;-71
2022/03/12 00:34:32;;;;;;;1.50;1.10;;;10.40;53.40;;;;;;5041513;28;20459;-71
2022/03/12 00:37:01;;;;;;;2.60;2.40;;;10.40;53.40;;;;;;5032087;28;20510;-71
2022/03/12 00:39:27;;;;;;;3.93;3.73;;;10.40;53.80;;;;;;5044381;28;20497;-71
2022/03/12 00:41:54;;;;;;;1.43;1.10;;;10.40;53.90;;;;;;5044260;28;20478;-71
2022/03/12 00:44:21;;;;;;;2.60;2.40;;;10.40;53.90;;;;;;5048910;28;20473;-70
2022/03/12 00:46:48;;;;;;;1.47;1.10;;;10.30;53.80;;;;;;5047554;28;20474;-70
2022/03/12 00:49:15;;;;;;;1.50;1.10;;;10.30;53.90;;;;;;5049073;28;20458;-71
2022/03/12 00:51:44;;;;;;;1.50;1.10;;;10.30;54.20;;;;;;5043860;28;20981;-71
2022/03/12 00:54:12;;;;;;;1.47;1.10;;;10.30;54.20;;;;;;5048786;28;20950;-71
2022/03/12 00:56:39;;;;;;;1.47;1.10;;;10.30;54.30;;;;;;5049022;28;20459;-70
2022/03/12 00:59:07;;;;;;;1.60;1.50;;;10.30;54.60;;;;;;5048298;28;21211;-70
2022/03/12 01:01:34;;;;;;;1.50;1.20;;;10.30;54.70;;;;;;5038377;28;20486;-70
2022/03/12 01:04:01;;;;;;;1.43;1.10;;;10.30;54.80;;;;;;5042618;28;20530;-70
2022/03/12 01:06:27;;;;;;;2.37;2.17;;;10.30;55.00;;;;;;5046135;28;20466;-71
2022/03/12 01:08:54;;;;;;;1.50;1.10;;;10.30;55.00;;;;;;5051875;28;20926;-71
2022/03/12 01:11:22;;;;;;;1.40;1.10;;;10.30;54.90;;;;;;5043164;28;20491;-71
2022/03/12 01:13:49;;;;;;;1.40;1.10;;;10.30;55.20;;;;;;5052001;28;20962;-71
2022/03/12 01:16:16;;;;;;;2.13;1.93;;;10.30;55.30;;;;;;5046144;28;20466;-71
2022/03/12 01:18:43;;;;;;;1.50;1.30;;;10.30;55.50;;;;;;5044086;28;20478;-71
2022/03/12 01:21:12;;;;;;;1.50;1.20;;;10.30;55.50;;;;;;5047129;28;20608;-70
2022/03/12 01:23:39;;;;;;;1.43;1.10;;;10.30;55.60;;;;;;5048077;28;20466;-71
2022/03/12 01:26:06;;;;;;;1.43;1.10;;;10.30;55.70;;;;;;5047539;28;20477;-71
2022/03/12 01:28:35;;;;;;;1.47;1.10;;;10.30;55.80;;;;;;5051762;28;20867;-71
2022/03/12 01:31:01;;;;;;;1.40;1.00;;;10.20;55.80;;;;;;5042805;28;20482;-71
2022/03/12 01:33:28;;;;;;;1.40;1.10;;;10.20;55.70;;;;;;5043988;28;20463;-71
2022/03/12 01:35:55;;;;;;;1.50;1.30;;;10.20;56.00;;;;;;5050242;28;20527;-71
2022/03/12 01:38:29;;;;;;;1.40;1.00;;;10.20;56.00;;;;;;5047040;28;20458;-70
2022/03/12 01:40:56;;;;;;;1.50;1.10;;;10.20;56.00;;;;;;5036512;28;21007;-70
2022/03/12 01:43:24;;;;;;;1.50;1.10;;;10.10;56.00;;;;;;5033581;28;20509;-70
2022/03/12 01:45:52;;;;;;;1.40;1.10;;;10.10;56.10;;;;;;5034996;28;20458;-71
2022/03/12 01:48:19;;;;;;;1.40;1.00;;;10.10;56.40;;;;;;5041476;28;20576;-71
2022/03/12 01:50:46;;;;;;;1.43;1.10;;;10.10;56.40;;;;;;5051703;28;21009;-71
2022/03/12 01:53:13;;;;;;;3.00;1.73;;;10.10;56.10;;;;;;5047587;28;20473;-71
2022/03/12 01:55:40;;;;;;;1.47;1.27;;;10.10;56.10;;;;;;5050030;28;21146;-71
2022/03/12 01:58:07;;;;;;;1.43;1.10;;;10.10;56.30;;;;;;5043090;28;20454;-70
2022/03/12 02:00:43;;;;;;;3.10;1.73;;;10.00;56.70;;;;;;5048583;28;20498;-71
2022/03/12 02:03:12;;;;;;;1.40;1.10;;;10.00;56.70;;;;;;5047642;28;20465;-71
2022/03/12 02:05:38;;;;;;;1.50;1.20;;;10.00;56.90;;;;;;5051655;28;20461;-70
2022/03/12 02:08:05;;;;;;;1.50;1.10;;;10.00;56.90;;;;;;5048228;28;20522;-71
2022/03/12 02:10:34;;;;;;;2.23;1.87;;;10.00;57.20;;;;;;5049471;28;20899;-71
2022/03/12 02:13:01;;;;;;;1.40;1.10;;;10.00;57.20;;;;;;5045433;28;20494;-70
2022/03/12 02:15:28;;;;;;;1.50;1.20;;;10.00;57.20;;;;;;5044514;28;20489;-71
2022/03/12 02:17:55;;;;;;;1.50;1.27;;;10.00;57.00;;;;;;5041886;28;20988;-71
2022/03/12 02:20:24;;;;;;;2.47;1.93;;;10.00;56.80;;;;;;5048818;28;20509;-71
2022/03/12 02:22:53;;;;;;;1.47;1.10;;;10.00;57.10;;;;;;5033295;28;20481;-71
2022/03/12 02:25:26;;;;;;;1.60;1.43;;;10.00;57.00;;;;;;5028995;28;20463;-71
2022/03/12 02:27:53;;;;;;;1.47;1.10;;;10.00;56.90;;;;;;5029946;28;20517;-70
2022/03/12 02:30:20;;;;;;;2.00;1.50;;;10.00;56.90;;;;;;5016999;28;20467;-71
2022/03/12 02:32:48;;;;;;;1.43;1.10;;;10.00;57.00;;;;;;5028544;28;20478;-71
2022/03/12 02:35:17;;;;;;;1.50;1.13;;;10.00;57.00;;;;;;5028407;28;20471;-71
2022/03/12 02:37:47;;;;;;;1.50;1.20;;;9.90;56.70;;;;;;5029923;28;20525;-70
2022/03/12 02:40:14;;;;;;;1.47;1.10;;;9.90;56.60;;;;;;5028511;28;20974;-70
2022/03/12 02:42:43;;;;;;;1.50;1.10;;;9.90;56.80;;;;;;5029489;28;20498;-71
2022/03/12 02:45:11;;;;;;;1.40;1.10;;;9.90;57.00;;;;;;5029005;28;20459;-71
2022/03/12 02:47:41;;;;;;;1.50;1.20;;;9.90;56.90;;;;;;5033111;28;21205;-70
2022/03/12 02:50:11;;;;;;;1.50;1.17;;;9.90;57.40;;;;;;5029728;28;20494;-71
2022/03/12 02:52:41;;;;;;;1.50;1.20;;;9.90;57.30;;;;;;5032050;28;20483;-71
2022/03/12 02:55:12;;;;;;;3.50;3.20;;;9.90;57.70;;;;;;5030834;28;20478;-71
2022/03/12 02:57:40;;;;;;;1.47;1.10;;;9.90;57.90;;;;;;5033241;28;20499;-70
2022/03/12 03:00:10;;;;;;;1.50;1.20;;;9.90;59.50;;;;;;5028187;28;20585;-70
2022/03/12 03:02:40;;;;;;;1.43;1.10;;;9.90;61.50;;;;;;5029512;28;20505;-70
2022/03/12 03:05:21;;;;;;;6.03;5.43;;;9.80;62.60;;;;;;5029208;28;20473;-70
2022/03/12 03:07:48;;;;;;;1.47;1.10;;;9.70;62.30;;;;;;5028735;28;20459;-70
2022/03/12 03:10:29;;;;;;;1.47;1.10;;;9.70;62.80;;;;;;5027937;28;20491;-70
2022/03/12 03:12:58;;;;;;;1.40;1.10;;;9.60;61.20;;;;;;5029035;28;20499;-70
2022/03/12 03:15:30;;;;;;;1.47;1.10;;;9.50;61.40;;;;;;5032552;28;20505;-70
2022/03/12 03:18:10;;;;;;;1.43;1.10;;;9.50;61.50;;;;;;5034612;28;20485;-70
2022/03/12 03:20:36;;;;;;;1.43;1.10;;;9.40;61.20;;;;;;5028411;28;21157;-70
2022/03/12 03:23:07;;;;;;;1.50;1.20;;;9.40;61.40;;;;;;5045300;28;20466;-70
2022/03/12 03:25:34;;;;;;;1.40;1.10;;;9.40;61.20;;;;;;5048412;28;20462;-71
2022/03/12 03:28:01;;;;;;;1.67;1.57;;;9.40;61.10;;;;;;5046992;28;20463;-71
2022/03/12 03:30:34;;;;;;;1.40;1.20;;;9.40;61.20;;;;;;5048079;28;20464;-70
2022/03/12 03:33:01;;;;;;;1.60;1.50;;;9.40;61.10;;;;;;5022991;28;20575;-71
2022/03/12 03:35:28;;;;;;;1.50;1.20;;;9.40;61.20;;;;;;5047879;28;20498;-71
2022/03/12 03:37:55;;;;;;;4.33;3.43;;;9.40;61.10;;;;;;5042654;28;20458;-71
2022/03/12 03:40:22;;;;;;;2.43;2.23;;;9.40;61.40;;;;;;5045779;28;20505;-71
2022/03/12 03:42:49;;;;;;;1.47;1.10;;;9.30;61.50;;;;;;5048530;28;20469;-71
2022/03/12 03:45:21;;;;;;;1.80;1.70;;;9.40;61.60;;;;;;5049366;28;20466;-70
2022/03/12 03:47:49;;;;;;;1.47;1.20;;;9.30;61.60;;;;;;5054455;28;20462;-70
2022/03/12 03:50:18;;;;;;;1.50;1.10;;;9.30;61.50;;;;;;5047841;28;20469;-71
2022/03/12 03:52:44;;;;;;;1.60;1.50;;;9.30;61.30;;;;;;5042856;28;20469;-70
2022/03/12 03:55:11;;;;;;;9.90;3.10;;;9.30;61.30;;;;;;5049785;28;20837;-70
2022/03/12 03:57:38;;;;;;;1.50;1.20;;;9.30;61.30;;;;;;5043199;28;20839;-70
2022/03/12 04:00:06;;;;;;;1.50;1.30;;;9.30;61.50;;;;;;5047595;28;20490;-70
2022/03/12 04:02:33;;;;;;;1.50;1.23;;;9.30;61.50;;;;;;5031124;28;20494;-70
2022/03/12 04:05:01;;;;;;;2.27;2.07;;;9.30;61.70;;;;;;5045207;28;20458;-70
2022/03/12 04:07:28;;;;;;;1.77;1.67;;;9.30;61.80;;;;;;5046060;28;20970;-70
2022/03/12 04:09:55;;;;;;;1.50;1.33;;;9.30;62.00;;;;;;5046908;28;20466;-71
2022/03/12 04:12:23;;;;;;;1.43;1.10;;;9.30;62.50;;;;;;5047296;28;21132;-71
2022/03/12 04:14:50;;;;;;;1.50;1.20;;;9.30;62.30;;;;;;5048216;28;20473;-70
2022/03/12 04:17:18;;;;;;;1.53;1.37;;;9.30;62.70;;;;;;5041864;28;20465;-71
2022/03/12 04:19:46;;;;;;;1.60;1.43;;;9.40;62.80;;;;;;5046772;28;20471;-71
2022/03/12 04:22:14;;;;;;;1.50;1.20;;;9.40;62.80;;;;;;5037076;28;20494;-71
2022/03/12 04:24:41;;;;;;;1.57;1.47;;;9.40;62.90;;;;;;5048660;28;20489;-70
2022/03/12 04:27:08;;;;;;;3.43;3.23;;;9.40;62.70;;;;;;5043858;28;20872;-71
2022/03/12 04:29:35;;;;;;;1.50;1.20;;;9.40;62.80;;;;;;5044897;28;20459;-71
2022/03/12 04:32:03;;;;;;;1.50;1.20;;;9.40;62.90;;;;;;5047609;28;20481;-71
2022/03/12 04:34:30;;;;;;;1.40;1.10;;;9.40;63.10;;;;;;5047492;28;21021;-71
2022/03/12 04:36:57;;;;;;;3.30;3.10;;;9.40;63.00;;;;;;5045480;28;20490;-70
2022/03/12 04:39:25;;;;;;;1.43;1.13;;;9.30;62.80;;;;;;5046461;28;20470;-71
2022/03/12 04:41:51;;;;;;;1.47;1.10;;;9.30;62.60;;;;;;5023572;28;20491;-71
2022/03/12 04:44:20;;;;;;;1.40;1.10;;;9.40;62.80;;;;;;5027022;28;20988;-70
2022/03/12 04:46:47;;;;;;;1.47;1.10;;;9.30;62.80;;;;;;5023360;28;20533;-71
2022/03/12 04:49:14;;;;;;;3.20;3.00;;;9.40;63.20;;;;;;5038805;28;20466;-71
2022/03/12 04:51:41;;;;;;;1.50;1.20;;;9.40;63.50;;;;;;5039332;28;20474;-70
2022/03/12 04:54:08;;;;;;;1.53;1.43;;;9.40;63.60;;;;;;5047794;28;20493;-71
2022/03/12 04:56:37;;;;;;;1.43;1.10;;;9.40;63.50;;;;;;5036779;28;20559;-71
2022/03/12 04:59:04;;;;;;;1.40;1.10;;;9.40;63.50;;;;;;5043026;28;20466;-70
2022/03/12 05:01:31;;;;;;;1.47;1.10;;;9.40;63.40;;;;;;5032071;28;20487;-72
2022/03/12 05:03:58;;;;;;;1.50;1.10;;;9.40;63.60;;;;;;5043807;28;20463;-70
2022/03/12 05:06:26;;;;;;;1.73;1.63;;;9.30;63.60;;;;;;5033576;28;21033;-70
2022/03/12 05:08:53;;;;;;;2.73;2.53;;;9.30;63.70;;;;;;5045182;28;20490;-71
2022/03/12 05:11:21;;;;;;;1.50;1.10;;;9.30;63.90;;;;;;5041776;28;20478;-71
2022/03/12 05:13:53;;;;;;;1.47;1.20;;;9.30;64.00;;;;;;5046058;28;20466;-70
2022/03/12 05:16:20;;;;;;;1.50;1.30;;;9.20;64.20;;;;;;5034880;28;20469;-71
2022/03/12 05:18:47;;;;;;;1.50;1.20;;;9.20;64.30;;;;;;5046709;28;20468;-71
2022/03/12 05:21:14;;;;;;;1.47;1.20;;;9.20;64.40;;;;;;5027707;28;20482;-71
2022/03/12 05:23:41;;;;;;;1.50;1.20;;;9.10;64.60;;;;;;5012330;28;20469;-70
2022/03/12 05:26:08;;;;;;;1.50;1.20;;;9.10;64.70;;;;;;5026783;28;21010;-71
2022/03/12 05:28:38;;;;;;;1.40;1.10;;;9.10;65.00;;;;;;5027738;28;20482;-71
2022/03/12 05:31:06;;;;;;;1.43;1.20;;;9.10;65.30;;;;;;5024839;28;20510;-70
2022/03/12 05:33:34;;;;;;;1.50;1.20;;;9.10;65.90;;;;;;5026998;28;21032;-71
2022/03/12 05:36:01;;;;;;;1.47;1.20;;;9.10;65.90;;;;;;5028673;28;20490;-71
2022/03/12 05:38:34;;;;;;;1.40;1.10;;;9.10;66.10;;;;;;5030598;28;20538;-70
2022/03/12 05:41:02;;;;;;;1.50;1.40;;;9.10;66.60;;;;;;5052956;23;21148;-72
2022/03/12 05:43:29;;;;;;;1.40;1.10;;;9.10;66.60;;;;;;5063404;28;20482;-73
2022/03/12 05:45:56;;;;;;;1.43;1.20;;;9.10;66.70;;;;;;5037521;28;20473;-72
2022/03/12 05:48:27;;;;;;;1.50;1.30;;;9.10;67.00;;;;;;5042612;28;20466;-72
2022/03/12 05:50:54;;;;;;;1.47;1.20;;;9.10;67.40;;;;;;5038231;28;21014;-75
2022/03/12 05:53:22;;;;;;;1.50;1.20;;;9.10;67.80;;;;;;5030577;28;20629;-72
2022/03/12 05:55:49;;;;;;;3.00;2.33;;;9.00;67.80;;;;;;5049748;28;20466;-73
2022/03/12 05:58:17;;;;;;;1.60;1.50;;;9.00;67.80;;;;;;5050678;28;20458;-72
2022/03/12 06:00:44;;;;;;;1.50;1.30;;;9.00;68.10;;;;;;5049213;28;20729;-74
2022/03/12 06:03:11;;;;;;;1.43;1.10;;;9.00;68.30;;;;;;5023981;28;20497;-75
2022/03/12 06:05:43;;;;;;;1.43;1.20;;;9.00;68.60;;;;;;5050155;28;20741;-72
2022/03/12 06:08:15;;;;;;;1.67;1.50;;;9.00;68.90;;;;;;5037673;28;20880;-75
2022/03/12 06:10:45;;;;;;;1.50;1.20;;;9.00;69.40;;;;;;5048095;28;20557;-70
2022/03/12 06:13:16;;;;;;;1.50;1.20;;;8.90;69.40;;;;;;5056229;28;20903;-70
2022/03/12 06:15:48;;;;;;;1.50;1.20;;;8.90;69.40;;;;;;5050855;28;20520;-70
2022/03/12 06:18:15;;;;;;;1.47;1.13;;;9.00;69.80;;;;;;5056177;28;20466;-70
2022/03/12 06:20:43;;;;;;;1.43;1.10;;;9.00;70.20;;;;;;5048473;28;20547;-70
2022/03/12 06:23:10;;;;;;;3.30;3.10;;;9.00;70.50;;;;;;5054113;28;20490;-70
2022/03/12 06:25:37;;;;;;;1.50;1.20;;;9.00;70.60;;;;;;5049766;28;20489;-71
2022/03/12 06:28:04;;;;;;;1.47;1.10;;;9.00;70.90;;;;;;5035836;28;20489;-70
2022/03/12 06:30:31;;;;;;;1.43;1.10;;;9.00;71.30;;;;;;5041652;28;20490;-70
2022/03/12 06:32:58;;;;;;;1.43;1.10;;;9.00;71.40;;;;;;5054686;28;20469;-70
2022/03/12 06:35:26;;;;;;;1.43;1.20;;;9.10;71.80;;;;;;5055543;28;20466;-70
2022/03/12 06:37:55;;;;;;;4.40;4.00;;;9.10;71.70;;;;;;5037625;28;20494;-69
2022/03/12 06:40:22;;;;;;;1.47;1.10;;;9.20;71.80;;;;;;5047364;28;20561;-69
2022/03/12 06:42:51;;;;;;;1.40;1.10;;;9.20;72.10;;;;;;5053051;28;20597;-70
2022/03/12 06:45:18;;;;;;;1.97;1.87;;;9.30;72.30;;;;;;5050971;28;20765;-69
2022/03/12 06:47:46;;;;;;;1.60;1.40;;;9.40;72.30;;;;;;5051582;28;20961;-70
2022/03/12 06:50:16;;;;;;;1.50;1.10;;;9.50;72.10;;;;;;5048224;28;20486;-70
2022/03/12 06:52:47;;;;;;;1.40;1.10;;;9.60;72.10;;;;;;5051162;28;20504;-70
2022/03/12 06:55:15;;;;;;;1.50;1.20;;;9.70;72.10;;;;;;5047631;28;20463;-70
2022/03/12 06:57:42;;;;;;;1.50;1.20;;;9.70;72.00;;;;;;5046895;28;20462;-70
2022/03/12 07:00:14;;;;;;;1.50;1.20;;;9.70;72.00;;;;;;5041587;28;20478;-70
2022/03/12 07:02:41;;;;;;;1.50;1.20;;;9.70;72.20;;;;;;5049999;28;20524;-70
2022/03/12 07:05:08;;;;;;;1.50;1.20;;;9.70;72.40;;;;;;5048635;28;20981;-70
2022/03/12 07:07:36;;;;;;;1.50;1.10;;;9.70;72.60;;;;;;5050289;28;20476;-70
2022/03/12 07:10:04;;;;;;;1.47;1.10;;;9.60;73.00;;;;;;5041983;28;20494;-70
2022/03/12 07:12:32;;;;;;;1.50;1.30;;;9.60;73.30;;;;;;5042721;28;20446;-70
2022/03/12 07:14:59;;;;;;;1.40;1.10;;;9.60;73.70;;;;;;5049868;28;20805;-71
2022/03/12 07:17:26;;;;;;;1.50;1.27;;;9.70;73.70;;;;;;5049316;28;20477;-71
2022/03/12 07:19:53;;;;;;;1.47;1.20;;;9.80;73.90;;;;;;5034363;28;20475;-71
2022/03/12 07:22:19;;;;;;;1.50;1.20;;;9.90;74.10;;;;;;5055400;28;20505;-71
2022/03/12 07:24:46;;;;;;;1.50;1.10;;;10.00;74.20;;;;;;5048077;28;20584;-71
2022/03/12 07:27:13;;;;;;;2.53;2.33;;;10.10;74.70;;;;;;5046249;28;20878;-71
2022/03/12 07:29:41;;;;;;;1.50;1.10;;;10.10;75.00;;;;;;5048732;28;20474;-71
2022/03/12 07:32:09;;;;;;;1.50;1.30;;;10.20;75.00;;;;;;5036165;28;20512;-71
2022/03/12 07:34:36;;;;;;;1.47;1.10;;;10.30;74.90;;;;;;5046602;28;20471;-71
2022/03/12 07:37:02;;;;;;;1.47;1.10;;;10.40;75.10;;;;;;5035710;28;20864;-70
2022/03/12 07:39:29;;;;;;;1.50;1.10;;;10.50;75.50;;;;;;5047189;28;20813;-71
2022/03/12 07:41:56;;;;;;;1.47;1.10;;;10.70;76.00;;;;;;5035099;28;20481;-71
2022/03/12 07:44:23;;;;;;;1.50;1.20;;;10.80;76.80;;;;;;5042079;28;20469;-72
2022/03/12 07:46:51;;;;;;;1.47;1.10;;;11.00;76.80;;;;;;5047713;28;21165;-71
2022/03/12 07:49:18;;;;;;;1.47;1.00;;;11.20;78.10;;;;;;5047406;28;20886;-71
2022/03/12 07:51:45;;;;;;;2.50;2.30;;;11.30;77.30;;;;;;5047588;28;20482;-71
2022/03/12 07:54:13;;;;;;;1.50;1.00;;;11.50;76.80;;;;;;5048785;28;20846;-72
2022/03/12 07:56:40;;;;;;;1.43;1.00;;;11.50;76.90;;;;;;5036546;28;21061;-72
2022/03/12 07:59:07;;;;;;;1.47;1.03;;;11.60;77.00;;;;;;5047006;28;20582;-72
2022/03/12 08:01:34;;;;;;;1.47;1.10;;;11.60;77.00;;;;;;5047921;28;20501;-72
2022/03/12 08:04:02;;;;;;;1.57;1.40;;;11.60;76.40;;;;;;5047877;28;20463;-72
2022/03/12 08:06:29;;;;;;;1.50;1.20;;;11.70;76.30;;;;;;5048567;28;20638;-72
2022/03/12 08:08:57;;;;;;;1.40;1.00;;;11.70;76.20;;;;;;5048408;28;20485;-72
2022/03/12 08:11:29;;;;;;;1.47;1.10;;;11.70;75.80;;;;;;5046989;28;20478;-72
2022/03/12 08:14:02;;;;;;;1.50;1.20;;;11.90;75.80;;;;;;5047472;28;20467;-72
2022/03/12 08:16:29;;;;;;;3.13;2.90;;;12.00;75.90;;;;;;5040087;28;20467;-72
2022/03/12 08:18:57;;;;;;;2.33;2.13;;;12.10;76.10;;;;;;5048691;28;20470;-71
2022/03/12 08:21:25;;;;;;;1.97;1.87;;;12.10;75.80;;;;;;5046744;28;20502;-72
2022/03/12 08:23:52;;;;;;;1.50;1.10;;;12.20;75.20;;;;;;5047193;28;20999;-71
2022/03/12 08:26:19;;;;;;;1.47;1.10;;;12.40;75.20;;;;;;5048124;28;20469;-73
2022/03/12 08:28:47;;;;;;;1.50;1.00;;;12.60;74.60;;;;;;5043847;28;20462;-73
2022/03/12 08:31:14;;;;;;;1.50;1.10;;;12.60;75.10;;;;;;5047727;28;20482;-73
2022/03/12 08:33:41;;;;;;;3.00;2.70;;;12.70;74.50;;;;;;5048257;28;20806;-73
2022/03/12 08:36:08;;;;;;;1.43;1.00;;;12.80;74.30;;;;;;5037507;28;20478;-74
2022/03/12 08:38:38;;;;;;;1.70;1.60;;;12.90;74.40;;;;;;5044689;28;20473;-74
2022/03/12 08:41:06;;;;;;;1.70;1.60;;;12.90;74.40;;;;;;5045783;28;20504;-74
2022/03/12 08:43:33;;;;;;;1.47;1.00;;;13.00;74.50;;;;;;5050685;28;20565;-73
2022/03/12 08:46:01;;;;;;;1.50;1.00;;;13.00;74.40;;;;;;5045039;28;20463;-72
2022/03/12 08:48:29;;;;;;;1.47;1.00;;;12.90;75.00;;;;;;5050932;28;20477;-73
2022/03/12 08:50:57;;;;;;;1.50;1.00;;;13.10;74.70;;;;;;5045334;28;21260;-73
2022/03/12 08:53:23;;;;;;;1.40;1.00;;;13.20;74.70;;;;;;5045777;28;20458;-71
2022/03/12 08:55:52;;;;;;;1.50;1.00;;;13.40;74.20;;;;;;5046903;28;20821;-71
2022/03/12 08:58:21;;;;;;;1.47;1.00;;;13.70;73.80;;;;;;5041173;28;20540;-72
2022/03/12 09:00:52;;;;;;;1.40;1.00;;;14.00;73.10;;;;;;5044055;28;20482;-71
2022/03/12 09:03:19;;;;;;;1.50;1.20;;;14.10;73.40;;;;;;5043050;28;20521;-71
2022/03/12 09:05:47;;;;;;;1.40;1.00;;;14.20;73.70;;;;;;5046535;28;20462;-71
2022/03/12 09:08:15;;;;;;;1.50;1.00;;;14.20;73.80;;;;;;5043839;28;20458;-71
2022/03/12 09:10:42;;;;;;;1.50;1.00;;;14.40;73.50;;;;;;5044782;28;20978;-71
2022/03/12 09:13:15;;;;;;;1.40;1.00;;;14.50;73.40;;;;;;5047509;28;20462;-71
2022/03/12 09:15:43;;;;;;;1.50;1.00;;;14.50;73.80;;;;;;5046715;28;20814;-71
2022/03/12 09:18:10;;;;;;;1.43;0.90;;;14.70;74.30;;;;;;5047765;28;20462;-71
2022/03/12 09:20:46;;;;;;;1.50;1.10;;;14.90;74.60;;;;;;5044935;28;20509;-72
2022/03/12 09:23:14;;;;;;;1.50;0.90;;;15.10;74.80;;;;;;5038351;28;20486;-72
2022/03/12 09:45:59;;;;;;;1.47;0.90;;;16.10;76.60;;;;;;5036812;28;20466;-71
2022/03/12 09:48:27;;;;;;;1.40;0.90;;;15.90;77.20;;;;;;5029878;28;20466;-71
2022/03/12 09:50:54;;;;;;;1.50;0.90;;;15.90;77.00;;;;;;5045205;28;20493;-73
2022/03/12 09:53:21;;;;;;;1.40;0.90;;;15.80;77.40;;;;;;5046972;28;20460;-71
2022/03/12 09:55:48;;;;;;;1.43;0.90;;;15.80;77.20;;;;;;5044691;28;20924;-72
2022/03/12 09:58:15;;;;;;;1.40;0.90;;;15.70;77.60;;;;;;5049230;28;20459;-73
2022/03/12 10:00:43;;;;;;;1.50;1.00;;;15.60;77.90;;;;;;5051114;28;20536;-73
2022/03/12 10:03:11;;;;;;;1.50;1.00;;;15.60;78.20;;;;;;5049194;28;20486;-73
2022/03/12 10:05:38;;;;;;;1.40;0.90;;;15.80;77.90;;;;;;5050098;28;20839;-72
2022/03/12 10:08:05;;;;;;;1.43;0.90;;;16.10;77.10;;;;;;5050346;28;20476;-73
2022/03/12 10:10:32;;;;;;;1.50;0.90;;;16.30;76.60;;;;;;5045340;28;20529;-73
2022/03/12 10:12:59;;;;;;;1.47;0.90;;;16.40;76.30;;;;;;5025786;28;20530;-73
2022/03/12 10:15:26;;;;;;;1.43;0.90;;;16.50;76.10;;;;;;5046785;28;20871;-73
2022/03/12 10:17:53;;;;;;;1.50;1.10;;;16.60;75.60;;;;;;5035122;28;20486;-72
2022/03/12 10:20:21;;;;;;;1.43;0.90;;;16.80;75.20;;;;;;5047021;28;20474;-73
2022/03/12 10:22:48;;;;;;;1.40;1.00;;;17.00;74.90;;;;;;5053053;28;20478;-72
2022/03/12 10:25:16;;;;;;;1.50;1.00;;;16.90;74.60;;;;;;5051406;28;20465;-73
2022/03/12 10:27:43;;;;;;;1.47;0.90;;;16.90;74.50;;;;;;5051448;28;20462;-73
2022/03/12 10:30:11;;;;;;;1.47;1.00;;;17.00;74.60;;;;;;5047748;28;20489;-73
2022/03/12 10:32:44;;;;;;;1.50;0.97;;;17.10;74.30;;;;;;5044872;28;20458;-72
2022/03/12 10:35:13;;;;;;;1.43;0.90;;;16.80;75.10;;;;;;5047722;28;20490;-73
2022/03/12 10:37:41;;;;;;;1.50;0.90;;;16.80;74.90;;;;;;5050913;28;20462;-73
2022/03/12 10:40:11;;;;;;;1.47;0.90;;;16.90;74.80;;;;;;5048440;28;20540;-72
2022/03/12 10:42:45;;;;;;;1.40;0.90;;;16.80;74.30;;;;;;5048757;28;20490;-73
2022/03/12 10:45:14;;;;;;;1.47;0.90;;;16.90;74.70;;;;;;5049802;28;20532;-73
2022/03/12 10:47:43;;;;;;;1.50;0.90;;;16.90;74.90;;;;;;5046786;28;20881;-71
2022/03/12 10:50:14;;;;;;;1.47;0.90;;;17.00;74.10;;;;;;5042136;28;21003;-73
2022/03/12 10:52:47;;;;;;;1.50;1.00;;;17.00;74.50;;;;;;5047023;28;20542;-73
2022/03/12 10:55:19;;;;;;;1.40;0.90;;;16.90;74.40;;;;;;5048848;28;20559;-73
2022/03/12 10:57:57;;;;;;;1.43;0.90;;;16.80;74.60;;;;;;5048678;28;20553;-73
2022/03/12 11:00:24;;;;;;;1.50;0.90;;;16.60;75.30;;;;;;5054048;28;20481;-73
2022/03/12 11:02:57;;;;;;;1.50;0.90;;;16.60;75.20;;;;;;5048943;28;20946;-73
2022/03/12 11:05:29;;;;;;;1.43;0.90;;;16.50;75.70;;;;;;5048881;28;20470;-72
2022/03/12 11:08:18;;;;;;;1.40;0.90;;;16.50;75.60;;;;;;5051009;28;20488;-73
2022/03/12 11:10:53;;;;;;;1.50;0.90;;;16.20;76.00;;;;;;5046854;28;20512;-73
2022/03/12 11:13:34;;;;;;;1.50;1.00;;;16.20;75.90;;;;;;5045567;28;21037;-73
2022/03/12 11:16:12;;;;;;;1.50;0.90;;;16.00;76.30;;;;;;5048427;28;20462;-73
2022/03/12 11:18:46;;;;;;;1.47;1.00;;;15.80;76.90;;;;;;5046135;28;21704;-73
2022/03/12 11:21:14;;;;;;;1.50;1.00;;;15.70;76.80;;;;;;5041927;28;20481;-73
2022/03/12 11:23:43;;;;;;;1.90;1.67;;;15.80;76.90;;;;;;5042139;28;21013;-73
2022/03/12 11:26:10;;;;;;;1.47;0.90;;;15.80;77.10;;;;;;5045298;28;20473;-73
2022/03/12 11:28:37;;;;;;;1.43;1.00;;;15.70;77.20;;;;;;5040713;28;20682;-74
2022/03/12 11:31:07;;;;;;;1.43;0.90;;;15.70;77.20;;;;;;5037716;28;20653;-74
2022/03/12 11:33:35;;;;;;;1.40;0.90;;;15.90;76.90;;;;;;5035649;28;20499;-71
2022/03/12 11:36:10;;;;;;;1.50;0.90;;;15.90;76.70;;;;;;5049545;28;20470;-71
2022/03/12 11:38:37;;;;;;;1.43;0.90;;;16.00;76.50;;;;;;5050730;28;20463;-70
2022/03/12 11:41:08;;;;;;;1.43;0.90;;;16.10;76.10;;;;;;5048399;28;20482;-71
2022/03/12 11:43:39;;;;;;;1.47;0.90;;;16.20;76.10;;;;;;5051779;28;20511;-71
2022/03/12 11:46:12;;;;;;;1.47;0.90;;;16.20;76.00;;;;;;5048439;28;20466;-71
2022/03/12 11:48:41;;;;;;;1.43;1.00;;;16.40;75.40;;;;;;5044029;28;20553;-71
2022/03/12 11:51:18;;;;;;;1.47;0.90;;;16.60;74.70;;;;;;5045283;28;20685;-71
2022/03/12 11:53:46;;;;;;;2.07;1.83;;;16.70;74.50;;;;;;5045956;28;21040;-72
2022/03/12 11:56:16;;;;;;;1.47;1.00;;;16.90;74.20;;;;;;5048451;28;20515;-71
2022/03/12 11:58:44;;;;;;;1.40;0.90;;;17.00;73.80;;;;;;5049441;28;20455;-72
2022/03/12 12:01:19;;;;;;;1.47;0.90;;;17.20;73.20;;;;;;5046580;28;20478;-72
2022/03/12 12:03:46;;;;;;;1.43;0.90;;;17.30;72.90;;;;;;5045001;28;20790;-72
2022/03/12 12:06:13;;;;;;;1.40;0.90;;;17.30;72.90;;;;;;5047256;28;20489;-71
2022/03/12 12:08:40;;;;;;;1.43;0.90;;;17.20;73.20;;;;;;5046322;28;20805;-71
2022/03/12 12:11:07;;;;;;;1.43;0.90;;;17.20;72.90;;;;;;5045045;28;20490;-71
2022/03/12 12:13:36;;;;;;;1.47;0.90;;;17.30;72.50;;;;;;5047279;28;20470;-71
2022/03/12 12:16:06;;;;;;;1.47;0.90;;;17.40;72.50;;;;;;5048239;28;20605;-71
2022/03/12 12:18:33;;;;;;;1.47;0.90;;;17.60;72.30;;;;;;5044952;28;20889;-72
2022/03/12 12:21:00;;;;;;;1.47;0.90;;;17.70;72.10;;;;;;5044535;28;20573;-72
2022/03/12 12:23:27;;;;;;;1.47;0.90;;;17.80;71.80;;;;;;5041366;28;20581;-71
2022/03/12 12:26:07;;;;;;;1.47;0.90;;;17.70;71.30;;;;;;5040233;28;20466;-71
2022/03/12 12:28:45;;;;;;;1.50;1.00;;;17.60;71.80;;;;;;5038478;28;20468;-72
2022/03/12 12:31:20;;;;;;;1.50;0.90;;;17.60;71.30;;;;;;5040030;28;20485;-71
2022/03/12 12:33:47;;;;;;;1.40;0.90;;;17.50;71.70;;;;;;5041809;28;20565;-72
2022/03/12 12:36:16;;;;;;;1.43;1.00;;;17.40;71.70;;;;;;5043045;28;20461;-72
2022/03/12 12:39:05;;;;;;;1.47;0.90;;;17.20;72.00;;;;;;5042187;28;20942;-71
2022/03/12 12:41:52;;;;;;;1.47;0.93;;;16.80;72.70;;;;;;5036736;28;20487;-71
2022/03/12 12:44:36;;;;;;;1.43;0.90;;;16.70;73.20;;;;;;5027556;28;20495;-72
2022/03/12 12:47:05;;;;;;;1.50;0.90;;;16.90;73.00;;;;;;5039651;28;20654;-71
2022/03/12 12:49:37;;;;;;;1.47;0.90;;;17.10;72.60;;;;;;5038899;28;20463;-71
2022/03/12 12:52:05;;;;;;;1.40;0.90;;;17.20;72.30;;;;;;5024767;28;20505;-71
2022/03/12 12:54:57;;;;;;;1.47;0.90;;;17.20;72.20;;;;;;5041383;28;20844;-71
2022/03/12 12:57:42;;;;;;;1.50;0.90;;;17.00;72.10;;;;;;5029769;28;20594;-71
2022/03/12 13:00:34;;;;;;;1.43;0.90;;;16.90;72.50;;;;;;5039093;28;20522;-71
2022/03/12 13:03:16;;;;;;;1.50;0.90;;;17.00;72.60;;;;;;5040854;28;20536;-71
2022/03/12 13:05:52;;;;;;;1.40;0.90;;;16.90;72.70;;;;;;5032275;28;20475;-71
2022/03/12 13:08:22;;;;;;;1.40;0.90;;;17.00;72.60;;;;;;5044347;28;20554;-70
2022/03/12 13:10:52;;;;;;;1.43;0.90;;;17.00;72.80;;;;;;5028791;28;20482;-71
2022/03/12 13:13:21;;;;;;;1.50;0.90;;;17.20;72.40;;;;;;5039076;28;20462;-72
2022/03/12 13:15:50;;;;;;;1.47;1.00;;;17.10;72.10;;;;;;5037774;28;20504;-71
2022/03/12 13:18:40;;;;;;;1.47;0.90;;;17.20;72.10;;;;;;5042276;28;20500;-71